Mesa Verde National Park, CO

8:27 PM MDT on July 23, 2014 (GMT -0600)
Kelly Place B&B, McElmo Canyon (KCOCORTE2) Elev 5522 ft | 37.34 °N, 108.79 °W | Change Station

Current weather conditions updated 7 minutes ago

Clear
Clear
90.9 °F
Feels Like 87 °F
N
0.0
Wind Variable Wind from ESE
Gusts 0.0 mph

Tomorrow is forecast to be Much Cooler than today. Isolated thunderstorms.

Today
High -- | Low -- °F
--% Chance of Precip.
Yesterday
High -- | Low -- °F
Precip. -- in
6:12 AM 8:30 PM
Waning Crescent, 7% visible
Pressure 29.91 in
Visibility 10.0 miles
Clouds Clear
Heat Index 87 °F
Dew Point 43 °F
Humidity 19%
Rainfall 0.00 in
Snow Depth Not available.
UV 0 out of 12
Pollen 5.20 out of 12
Air Quality Not available.
Flu Activity Not available.
METAR KCEZ 240153Z AUTO 18008KT 10SM CLR 32/02 A3021 RMK AO2 SLP127 T03220022

More Conditions Fewer Conditions

Pressure 29.91 in
Visibility 10.0 miles
Clouds Clear
Heat Index 87 °F
Dew Point 43 °F
Humidity 19%
Rainfall 0.00 in
Snow Depth Not available.
UV 0 out of 12
Pollen 5.20 out of 12
Air Quality Not available.
Flu Activity Not available.
METAR KCEZ 240153Z AUTO 18008KT 10SM CLR 32/02 A3021 RMK AO2 SLP127 T03220022

More Conditions Fewer Conditions

10-Day Weather Forecast

Almanac

Astronomy

Jul. 23, 2014 Rise Set
Actual Time 6:12 AM MDT 8:30 PM MDT
Civil Twilight 5:42 AM MDT 8:59 PM MDT
Nautical Twilight 5:06 AM MDT 9:36 PM MDT
Astronomical Twilight 4:26 AM MDT 10:15 PM MDT
Moon 3:33 AM MDT (7/23) 6:02 PM MDT (7/23)
Length of Visible Light 15h 17m
Length of Day
14h 18m
Tomorrow will be 1m 32s shorter.
Waning Crescent, 7% of the Moon is Illuminated
Today
Waning Crescent
Jul 26
New
Aug 3
First Quarter
Aug 10
Full
Aug 17
Last Quarter

Today's Extremes

State Highs State Lows

Community

WunderPhotos

Upload Photos

1,736,853 photos uploaded!

Nearby

Snow Depth

Station Depth Elevation
Lone Cone 5 in 9600 ft
Lizard Head Pass 0 in 10200 ft
Beartown 0 in 11600 ft
Middle Creek 5 in 11250 ft
Upper San Juan 0 in 10130 ft

Earthquake Activity

City Distance Mag. Time & Date
No recent earthquake activity has been reported nearby.
Minimum magnitude displayed is 2.5.

Coastal Water Temperatures

Place Temperature
No Stations Reporting

Nearby Weather Stations

Station Location Temp. Heat Index Dew Point Humidity Wind Precip. Elev Updated Type
Kelly Place B&B, McElmo Canyon, Cortez, CO 90.9 °F 87 °F 43 °F 19% ESE  at  0.0 mph 0.00 in / hr 5522 ft 8:19 PM MDT Normal
RAWS MOCKINGBIRD CO, Yellow Jacket, CO 93 °F 89 °F 33 °F 12% SSW  at  8 mph 0.00 in / hr 6419 ft 7:44 PM MDT MADIS
Cahone (2.5 Miles NNE), Cahone, CO 80.3 °F 79 °F 36 °F 20% SSE  at  1.0 mph 0.00 in / hr 6870 ft 8:26 PM MDT Rapid Fire
RAWS MOREFIELD CO, Mesa Verde, CO 83 °F 80 °F 35 °F 18% South  at  7 mph 0.00 in / hr 7819 ft 7:40 PM MDT MADIS
RAWS SALTER CO, Cahone, CO 84 °F 81 °F 31 °F 15% SW  at  6 mph 0.00 in / hr 8201 ft 7:24 PM MDT MADIS

Show More Stations Show Fewer Stations